Time;durP1;ratioP1;P1;durP2;ratioP2;P2;SDS_P1;SDS_P2;PMS_P1;PMS_P2;Temp;Humidity;BMP_temperature;BMP_pressure;BME280_temperature;BME280_humidity;BME280_pressure;Samples;Min_cycle;Max_cycle;Signal;HPM_P1;HPM_P2
2022/12/23 05:02:11;;;;;;;1.20;1.10;;;11.40;99.90;;;;;;5206071;23;20499;-74
2022/12/23 05:04:37;;;;;;;2.40;1.77;;;11.40;99.90;;;;;;4986471;28;20455;-74
2022/12/23 05:07:04;;;;;;;2.23;1.87;;;11.40;99.90;;;;;;4985401;28;20463;-74
2022/12/23 05:09:31;;;;;;;1.50;1.40;;;11.40;99.90;;;;;;4985791;28;20459;-74
2022/12/23 05:11:58;;;;;;;1.90;1.47;;;11.40;99.90;;;;;;4971579;28;20487;-74
2022/12/23 05:14:24;;;;;;;1.50;1.40;;;11.40;99.90;;;;;;4966660;28;20460;-74
2022/12/23 05:16:51;;;;;;;2.77;1.57;;;11.40;99.90;;;;;;4965625;28;20467;-74
2022/12/23 05:19:19;;;;;;;3.37;1.70;;;11.40;99.90;;;;;;4965296;28;20504;-74
2022/12/23 05:21:46;;;;;;;3.03;1.90;;;11.40;99.90;;;;;;4966830;28;20479;-74
2022/12/23 05:24:13;;;;;;;1.80;1.70;;;11.50;99.90;;;;;;4966738;28;20453;-74
2022/12/23 05:26:39;;;;;;;2.43;2.10;;;11.40;99.90;;;;;;4966209;28;20468;-74
2022/12/23 05:29:06;;;;;;;1.93;1.67;;;11.40;99.90;;;;;;4966549;28;20453;-74
2022/12/23 05:31:33;;;;;;;2.17;1.97;;;11.50;99.90;;;;;;4965194;28;20479;-74
2022/12/23 05:34:00;;;;;;;2.33;2.13;;;11.50;99.90;;;;;;4966571;28;20511;-74
2022/12/23 05:36:28;;;;;;;2.17;2.00;;;11.50;99.90;;;;;;4966049;28;20456;-74
2022/12/23 05:38:56;;;;;;;1.90;1.80;;;11.50;99.90;;;;;;4966811;28;20501;-74
2022/12/23 05:41:23;;;;;;;2.40;2.20;;;11.50;99.90;;;;;;4966371;28;20531;-74
2022/12/23 05:43:50;;;;;;;2.47;2.27;;;11.50;99.90;;;;;;4962260;28;20899;-74
2022/12/23 05:46:16;;;;;;;2.50;2.23;;;11.50;99.90;;;;;;4946379;28;20461;-74
2022/12/23 05:48:43;;;;;;;3.23;2.60;;;11.50;99.90;;;;;;4947486;28;20461;-74
2022/12/23 05:51:10;;;;;;;3.20;2.20;;;11.50;99.90;;;;;;4946713;28;20473;-74
2022/12/23 05:53:38;;;;;;;2.70;2.40;;;11.40;99.90;;;;;;4947531;28;20468;-74
2022/12/23 05:56:06;;;;;;;4.47;2.53;;;11.50;99.90;;;;;;4946873;29;20453;-74
2022/12/23 05:58:33;;;;;;;3.20;2.90;;;11.50;99.90;;;;;;4946013;29;20497;-74
2022/12/23 06:01:01;;;;;;;2.97;2.63;;;11.50;99.90;;;;;;4965287;28;20483;-74
2022/12/23 06:03:28;;;;;;;3.27;2.97;;;11.50;99.90;;;;;;4975716;28;20451;-74
2022/12/23 06:05:55;;;;;;;3.17;2.87;;;11.50;99.90;;;;;;4986154;28;20484;-74
2022/12/23 06:08:22;;;;;;;2.50;2.30;;;11.50;99.90;;;;;;4989293;28;20948;-74
2022/12/23 06:10:50;;;;;;;4.87;2.87;;;11.50;99.90;;;;;;4989517;28;20482;-74
2022/12/23 06:13:17;;;;;;;3.07;2.77;;;11.50;99.90;;;;;;4989108;28;20458;-74
2022/12/23 06:15:44;;;;;;;4.32;2.70;;;11.50;99.90;;;;;;4955460;28;21131;-74
2022/12/23 06:18:10;;;;;;;6.83;2.83;;;11.70;99.90;;;;;;4969167;28;20236;-74
2022/12/23 06:20:37;;;;;;;2.60;2.40;;;11.70;99.90;;;;;;4969851;28;20480;-74
2022/12/23 06:23:04;;;;;;;3.10;2.80;;;11.70;99.90;;;;;;4970068;28;20460;-74
2022/12/23 06:25:31;;;;;;;3.73;2.70;;;11.70;99.90;;;;;;4970088;28;20467;-74
2022/12/23 06:27:59;;;;;;;2.77;2.57;;;11.60;99.90;;;;;;4982712;28;20443;-74
2022/12/23 06:30:26;;;;;;;2.73;2.53;;;11.60;99.90;;;;;;4988659;28;20494;-74
2022/12/23 06:32:52;;;;;;;3.00;2.60;;;11.60;99.90;;;;;;4988801;28;20831;-74
2022/12/23 06:35:19;;;;;;;4.33;1.80;;;11.50;99.90;;;;;;4989313;28;20452;-74
2022/12/23 06:37:46;;;;;;;2.00;1.90;;;11.50;99.90;;;;;;4988212;28;20495;-74
2022/12/23 06:40:13;;;;;;;2.20;2.00;;;11.50;99.90;;;;;;4988873;28;20451;-74
2022/12/23 06:42:40;;;;;;;2.57;2.30;;;11.50;99.90;;;;;;4988293;28;20481;-74
2022/12/23 06:45:10;;;;;;;3.00;1.97;;;11.50;99.90;;;;;;4949992;29;20468;-74
2022/12/23 06:47:37;;;;;;;1.90;1.80;;;11.40;99.90;;;;;;4949636;29;20462;-74
2022/12/23 06:50:04;;;;;;;2.10;2.00;;;11.40;99.90;;;;;;4949707;29;20458;-74
2022/12/23 06:52:31;;;;;;;2.73;2.30;;;11.40;99.90;;;;;;4949809;28;20477;-74
2022/12/23 06:54:58;;;;;;;2.63;2.43;;;11.40;99.90;;;;;;4950144;29;20461;-74
2022/12/23 06:57:25;;;;;;;3.50;3.20;;;11.50;99.90;;;;;;4949147;29;20473;-74
2022/12/23 06:59:51;;;;;;;2.67;2.30;;;11.50;99.90;;;;;;4949804;29;20503;-74
2022/12/23 07:02:20;;;;;;;3.60;2.30;;;11.50;99.90;;;;;;4949430;28;20851;-67
2022/12/23 07:04:47;;;;;;;6.00;2.50;;;11.50;99.90;;;;;;4950408;29;20449;-74
2022/12/23 07:07:13;;;;;;;3.20;2.90;;;11.50;99.90;;;;;;4949281;29;20473;-73
2022/12/23 07:09:40;;;;;;;2.77;2.57;;;11.50;99.90;;;;;;4950188;28;20445;-74
2022/12/23 07:12:07;;;;;;;3.17;2.27;;;11.50;99.90;;;;;;4949849;28;20512;-74
2022/12/23 07:14:34;;;;;;;3.90;2.50;;;11.50;99.90;;;;;;4949533;28;20457;-73
2022/12/23 07:17:01;;;;;;;3.67;2.70;;;11.50;99.90;;;;;;4958435;28;20830;-72
2022/12/23 07:19:29;;;;;;;4.67;2.97;;;11.50;99.90;;;;;;4974630;28;20488;-71
2022/12/23 07:21:55;;;;;;;2.77;2.40;;;11.50;99.90;;;;;;4988298;28;20471;-76
2022/12/23 07:24:22;;;;;;;2.93;2.57;;;11.60;99.90;;;;;;4988137;28;21217;-74
2022/12/23 07:26:49;;;;;;;2.60;2.40;;;11.60;99.90;;;;;;4986188;28;20817;-74
2022/12/23 07:29:16;;;;;;;3.20;2.90;;;11.50;99.90;;;;;;4987828;28;20459;-74
2022/12/23 07:31:42;;;;;;;3.03;2.63;;;11.60;99.90;;;;;;4987919;28;20838;-73
2022/12/23 07:34:09;;;;;;;4.10;2.70;;;11.60;99.90;;;;;;4987956;28;20455;-72
2022/12/23 07:36:38;;;;;;;4.93;3.13;;;11.50;99.90;;;;;;4987205;28;20456;-72
2022/12/23 07:39:04;;;;;;;3.43;3.10;;;11.50;99.90;;;;;;4987713;28;20876;-70
2022/12/23 07:41:31;;;;;;;3.17;2.87;;;11.50;99.90;;;;;;4970771;28;20476;-73
2022/12/23 07:43:58;;;;;;;3.20;2.90;;;11.60;99.90;;;;;;4968460;28;20460;-74
2022/12/23 07:46:25;;;;;;;3.33;2.90;;;11.60;99.90;;;;;;4967525;28;20452;-72
2022/12/23 07:48:51;;;;;;;2.90;2.60;;;11.60;99.90;;;;;;4968563;28;20452;-73
2022/12/23 07:51:18;;;;;;;3.30;3.10;;;11.60;99.90;;;;;;4968437;28;20476;-73
2022/12/23 07:53:50;;;;;;;5.20;3.60;;;11.60;99.90;;;;;;4967878;28;20975;-74
2022/12/23 07:56:17;;;;;;;7.72;5.90;;;11.70;99.90;;;;;;4966668;28;20438;-73
2022/12/23 07:58:48;;;;;;;6.17;4.30;;;11.70;99.90;;;;;;4968090;28;20237;-74
2022/12/23 08:01:15;;;;;;;3.93;3.40;;;11.70;99.90;;;;;;4967757;28;20488;-74
2022/12/23 08:03:41;;;;;;;4.30;3.90;;;11.80;99.90;;;;;;4968137;28;20513;-73
2022/12/23 08:06:11;;;;;;;4.63;4.20;;;11.80;99.90;;;;;;4967300;28;20463;-74
2022/12/23 08:08:39;;;;;;;6.53;5.13;;;11.80;99.90;;;;;;4967873;28;20515;-74
2022/12/23 08:11:09;;;;;;;7.90;5.60;;;11.80;99.90;;;;;;4966479;28;20490;-73
2022/12/23 08:13:38;;;;;;;7.40;5.83;;;11.80;99.90;;;;;;4978008;28;20448;-73
2022/12/23 08:16:06;;;;;;;7.07;4.90;;;11.70;99.90;;;;;;4977133;28;20452;-73
2022/12/23 08:18:34;;;;;;;6.00;5.40;;;11.70;99.90;;;;;;4970240;28;20496;-74
2022/12/23 08:21:03;;;;;;;5.97;5.13;;;11.70;99.90;;;;;;4983271;28;20498;-73
2022/12/23 08:23:30;;;;;;;6.63;5.70;;;11.60;99.90;;;;;;4986949;28;20463;-73
2022/12/23 08:26:01;;;;;;;7.67;4.80;;;11.70;99.90;;;;;;4986053;28;20455;-73
2022/12/23 08:28:30;;;;;;;6.73;5.23;;;11.60;99.90;;;;;;4985940;28;20452;-74
2022/12/23 08:31:04;;;;;;;6.63;5.00;;;11.60;99.90;;;;;;4986058;28;20578;-73
2022/12/23 08:33:30;;;;;;;6.53;5.23;;;11.50;99.90;;;;;;4985691;28;20444;-75
2022/12/23 08:35:57;;;;;;;6.50;5.00;;;11.60;99.90;;;;;;4986486;28;20930;-72
2022/12/23 08:38:24;;;;;;;5.00;4.37;;;11.60;99.90;;;;;;4986617;28;20496;-72
2022/12/23 08:40:51;;;;;;;7.83;4.60;;;11.60;99.90;;;;;;4962864;28;20477;-73
2022/12/23 08:43:18;;;;;;;7.13;4.83;;;11.60;99.90;;;;;;4948096;28;20454;-73
2022/12/23 08:45:46;;;;;;;6.13;4.93;;;11.60;99.90;;;;;;4947864;28;20457;-63
2022/12/23 08:48:13;;;;;;;4.73;4.23;;;11.60;99.90;;;;;;4947145;29;20470;-70
2022/12/23 08:50:43;;;;;;;5.50;5.00;;;11.60;99.90;;;;;;4946738;28;20443;-72
2022/12/23 08:53:10;;;;;;;6.40;5.77;;;11.80;99.90;;;;;;4947791;28;20582;-72
2022/12/23 08:55:38;;;;;;;5.07;4.57;;;11.90;99.90;;;;;;4947341;29;20979;-71
2022/12/23 08:58:05;;;;;;;8.60;5.47;;;11.80;99.90;;;;;;4947198;29;20461;-71
2022/12/23 09:00:32;;;;;;;6.50;4.87;;;11.80;99.90;;;;;;4947425;28;20512;-71
2022/12/23 09:03:00;;;;;;;5.10;4.50;;;11.80;99.90;;;;;;4947383;29;20934;-78
2022/12/23 09:05:27;;;;;;;6.40;4.50;;;11.80;99.90;;;;;;4946216;29;20464;-71
2022/12/23 09:07:54;;;;;;;5.20;4.70;;;11.80;99.90;;;;;;4946238;29;20454;-72
2022/12/23 09:10:22;;;;;;;7.70;4.83;;;11.80;99.90;;;;;;4947860;28;20453;-73
2022/12/23 09:12:49;;;;;;;7.20;5.60;;;11.80;99.90;;;;;;4946625;28;20470;-73
2022/12/23 09:15:15;;;;;;;8.60;5.73;;;11.90;99.90;;;;;;4946033;29;20457;-73
2022/12/23 09:17:43;;;;;;;7.80;5.50;;;11.80;99.90;;;;;;4945932;28;20834;-72
2022/12/23 09:20:12;;;;;;;12.17;5.50;;;11.90;99.90;;;;;;4946616;28;20596;-73
2022/12/23 09:22:39;;;;;;;6.97;6.00;;;11.90;99.90;;;;;;4952004;28;20472;-64
2022/12/23 09:25:07;;;;;;;5.97;5.37;;;11.90;99.90;;;;;;4985202;28;20978;-64
2022/12/23 09:27:33;;;;;;;8.20;6.97;;;11.90;99.90;;;;;;4984411;28;21019;-73
2022/12/23 09:30:00;;;;;;;12.60;7.83;;;11.90;99.90;;;;;;4985332;28;20571;-76
2022/12/23 09:32:27;;;;;;;7.27;6.00;;;11.80;99.90;;;;;;4985956;28;20479;-76
2022/12/23 09:34:54;;;;;;;7.67;5.53;;;11.90;99.90;;;;;;4985502;28;20466;-73
2022/12/23 09:37:22;;;;;;;5.60;5.10;;;11.90;99.90;;;;;;4984145;28;20470;-73
2022/12/23 09:39:49;;;;;;;6.10;5.30;;;11.90;99.90;;;;;;4973847;28;20497;-72
2022/12/23 09:42:29;;;;;;;8.60;5.90;;;11.90;99.90;;;;;;4959758;28;20984;-73
2022/12/23 09:45:07;;;;;;;9.10;5.67;;;11.90;99.90;;;;;;4970254;28;20467;-73
2022/12/23 09:47:35;;;;;;;5.60;4.60;;;11.90;99.90;;;;;;4969323;28;20441;-73
2022/12/23 09:50:06;;;;;;;7.43;4.23;;;11.90;99.90;;;;;;4969835;28;20484;-73
2022/12/23 09:52:46;;;;;;;5.30;3.93;;;11.90;99.90;;;;;;4969939;28;20463;-73
2022/12/23 09:55:14;;;;;;;5.70;3.90;;;11.90;99.90;;;;;;4970395;28;20444;-72
2022/12/23 09:57:50;;;;;;;4.03;3.63;;;11.90;99.90;;;;;;4969476;28;20957;-73
2022/12/23 10:00:19;;;;;;;4.20;3.40;;;11.90;99.90;;;;;;4969962;28;20495;-73
2022/12/23 10:03:04;;;;;;;4.70;3.70;;;11.90;99.90;;;;;;4969808;28;20510;-73
2022/12/23 10:05:39;;;;;;;6.23;3.37;;;11.90;99.90;;;;;;4970380;28;20440;-73
2022/12/23 10:08:14;;;;;;;6.73;4.47;;;12.00;99.90;;;;;;4969548;28;20431;-73
2022/12/23 10:10:44;;;;;;;7.00;4.70;;;12.00;99.90;;;;;;4961352;28;20477;-73
2022/12/23 10:13:23;;;;;;;5.60;4.33;;;12.00;99.90;;;;;;4950688;28;20544;-74
2022/12/23 10:15:52;;;;;;;11.57;6.80;;;12.00;99.90;;;;;;4950466;29;20445;-73
2022/12/23 10:18:25;;;;;;;7.67;5.73;;;12.00;99.90;;;;;;4971390;28;20534;-73
2022/12/23 10:20:58;;;;;;;6.27;4.90;;;12.10;99.90;;;;;;4989046;28;20499;-73
2022/12/23 10:23:33;;;;;;;8.63;4.30;;;12.10;99.90;;;;;;4989321;28;20458;-73
2022/12/23 10:26:01;;;;;;;6.00;4.10;;;12.20;99.90;;;;;;4988050;28;20451;-73
2022/12/23 10:28:28;;;;;;;5.20;4.43;;;12.20;99.90;;;;;;4988801;28;20477;-73
2022/12/23 10:31:04;;;;;;;5.43;4.27;;;12.20;99.90;;;;;;4988883;28;20471;-73
2022/12/23 10:33:40;;;;;;;7.30;4.10;;;12.20;99.90;;;;;;4985544;28;20443;-74
2022/12/23 10:36:14;;;;;;;6.73;3.67;;;12.30;99.90;;;;;;4986103;28;20950;-74
2022/12/23 10:38:51;;;;;;;7.70;4.30;;;12.30;99.90;;;;;;4980700;28;20456;-73
2022/12/23 10:41:30;;;;;;;6.40;4.47;;;12.40;99.90;;;;;;4969694;28;20486;-78
2022/12/23 10:44:19;;;;;;;8.20;5.93;;;12.40;99.90;;;;;;4969209;28;20465;-73
2022/12/23 10:46:53;;;;;;;7.33;4.10;;;12.40;99.90;;;;;;4968105;28;20913;-74
2022/12/23 10:49:30;;;;;;;5.33;4.13;;;12.50;99.90;;;;;;4969143;28;20444;-73
2022/12/23 10:51:59;;;;;;;4.73;2.83;;;12.50;99.90;;;;;;4965661;28;21226;-73
2022/12/23 10:54:32;;;;;;;3.47;3.17;;;12.50;99.90;;;;;;4978251;28;20459;-74
2022/12/23 10:56:59;;;;;;;4.50;3.40;;;12.50;99.90;;;;;;4971681;28;20448;-74
2022/12/23 10:59:28;;;;;;;3.63;2.83;;;12.50;99.90;;;;;;4968770;28;20566;-73
2022/12/23 11:02:00;;;;;;;4.97;3.33;;;12.60;99.90;;;;;;4968523;28;20488;-73
2022/12/23 11:04:33;;;;;;;14.17;11.10;;;12.60;99.90;;;;;;4970130;28;20440;-73
2022/12/23 11:07:01;;;;;;;14.10;8.60;;;12.60;99.90;;;;;;4976376;28;20449;-73
2022/12/23 11:09:38;;;;;;;15.50;12.00;;;12.60;99.90;;;;;;4984769;28;20452;-73
2022/12/23 11:12:07;;;;;;;18.10;15.40;;;12.60;99.90;;;;;;4968027;28;20480;-72
2022/12/23 11:14:38;;;;;;;9.17;7.80;;;12.70;99.90;;;;;;4968967;28;20465;-73
2022/12/23 11:17:17;;;;;;;10.83;4.97;;;12.70;99.90;;;;;;4968423;28;20441;-73
2022/12/23 11:19:44;;;;;;;5.40;3.57;;;12.70;99.90;;;;;;4968710;28;20496;-73
2022/12/23 11:22:21;;;;;;;4.70;3.23;;;12.70;99.90;;;;;;4968392;28;20524;-71
2022/12/23 11:24:50;;;;;;;4.30;3.90;;;12.70;99.90;;;;;;4968995;28;20441;-72
2022/12/23 11:27:17;;;;;;;7.87;3.57;;;12.70;99.90;;;;;;4968305;28;20822;-71
2022/12/23 11:29:47;;;;;;;4.30;3.33;;;12.70;99.90;;;;;;4969154;28;21011;-73
2022/12/23 11:32:18;;;;;;;4.40;2.97;;;12.70;99.90;;;;;;4977317;28;20477;-73
2022/12/23 11:34:46;;;;;;;6.63;3.57;;;12.70;99.90;;;;;;4977511;28;20935;-73
2022/12/23 11:37:27;;;;;;;4.77;4.30;;;12.70;99.90;;;;;;4969011;28;20456;-73
2022/12/23 11:39:55;;;;;;;7.10;4.30;;;12.70;99.90;;;;;;4967671;28;20487;-73
2022/12/23 11:42:29;;;;;;;6.57;4.70;;;12.70;99.90;;;;;;4968553;28;20476;-74
2022/12/23 11:44:59;;;;;;;8.50;4.80;;;12.60;99.90;;;;;;4968242;28;20460;-73
2022/12/23 11:47:31;;;;;;;6.20;5.40;;;12.60;99.90;;;;;;4967294;28;20448;-74
2022/12/23 11:50:00;;;;;;;6.90;4.17;;;12.60;99.90;;;;;;4968211;28;20445;-74
2022/12/23 11:52:28;;;;;;;6.90;5.17;;;12.60;99.90;;;;;;4967901;28;20491;-73
2022/12/23 11:54:58;;;;;;;5.60;4.77;;;12.60;99.90;;;;;;4968033;28;20547;-73
2022/12/23 11:57:37;;;;;;;6.17;5.30;;;12.60;99.90;;;;;;4966813;28;20460;-73
2022/12/23 12:00:06;;;;;;;7.10;4.27;;;12.60;99.90;;;;;;4966193;28;20507;-74
2022/12/23 12:02:37;;;;;;;4.23;3.83;;;12.60;99.90;;;;;;4981085;28;20483;-65
2022/12/23 12:05:16;;;;;;;5.90;4.10;;;12.50;99.90;;;;;;4987151;28;20456;-65
2022/12/23 12:07:45;;;;;;;6.30;4.33;;;12.50;99.90;;;;;;4986740;28;20438;-65
2022/12/23 12:10:18;;;;;;;6.73;4.10;;;12.60;99.90;;;;;;4975760;28;20461;-65
2022/12/23 12:12:47;;;;;;;5.87;4.60;;;12.50;99.90;;;;;;4966929;28;20969;-73
2022/12/23 12:15:32;;;;;;;9.00;4.40;;;12.60;99.90;;;;;;4986655;28;20464;-73
2022/12/23 12:18:00;;;;;;;15.80;7.00;;;12.60;99.90;;;;;;4985973;28;20924;-73
2022/12/23 12:20:31;;;;;;;8.00;5.40;;;12.60;99.90;;;;;;4985763;28;20881;-72
2022/12/23 12:23:02;;;;;;;11.60;6.70;;;12.50;99.90;;;;;;4985739;28;20488;-72
2022/12/23 12:25:39;;;;;;;14.20;8.63;;;12.60;99.90;;;;;;4985206;28;20940;-72
2022/12/23 12:28:11;;;;;;;12.20;9.03;;;12.60;99.90;;;;;;4985368;28;20444;-72
2022/12/23 12:30:43;;;;;;;7.20;5.37;;;12.60;99.90;;;;;;4986409;28;20476;-77
2022/12/23 12:33:15;;;;;;;7.40;5.33;;;12.60;99.90;;;;;;4987699;28;20456;-78
2022/12/23 12:35:48;;;;;;;10.60;6.20;;;12.60;99.90;;;;;;4988296;28;20450;-77
2022/12/23 12:38:22;;;;;;;12.93;5.37;;;12.60;99.90;;;;;;4987599;28;20550;-78
2022/12/23 12:40:53;;;;;;;9.53;6.07;;;12.60;99.90;;;;;;4953859;28;20496;-77
2022/12/23 12:43:26;;;;;;;14.40;8.10;;;12.70;99.90;;;;;;4950250;28;20465;-77
2022/12/23 12:46:13;;;;;;;15.90;9.83;;;12.70;99.90;;;;;;4949082;29;20917;-77
2022/12/23 12:48:48;;;;;;;14.70;10.00;;;12.70;99.90;;;;;;4950039;29;20994;-78
2022/12/23 12:51:22;;;;;;;8.83;5.40;;;12.70;99.90;;;;;;4950030;28;20476;-78
2022/12/23 12:53:59;;;;;;;9.30;6.80;;;12.60;99.90;;;;;;4950034;28;20453;-78
2022/12/23 12:56:33;;;;;;;5.60;4.03;;;12.60;99.90;;;;;;4949207;29;20449;-77
2022/12/23 12:59:00;;;;;;;4.90;4.30;;;12.70;99.90;;;;;;4949605;29;20441;-78
2022/12/23 13:01:39;;;;;;;4.10;3.57;;;12.70;99.90;;;;;;4949325;28;20508;-78
2022/12/23 13:04:39;;;;;;;8.57;3.10;;;12.70;99.90;;;;;;4947770;29;20923;-73
2022/12/23 13:07:13;;;;;;;5.00;4.50;;;12.70;99.90;;;;;;4944101;29;20844;-72
2022/12/23 13:09:49;;;;;;;5.63;4.60;;;12.70;99.90;;;;;;4947974;28;20462;-72
2022/12/23 13:12:24;;;;;;;7.00;5.03;;;12.70;99.90;;;;;;4946855;28;20485;-73
2022/12/23 13:15:00;;;;;;;9.33;4.73;;;12.70;99.90;;;;;;4946004;29;20448;-72
2022/12/23 13:17:32;;;;;;;8.33;5.07;;;12.70;99.90;;;;;;4945781;29;20437;-73
2022/12/23 13:20:08;;;;;;;4.60;3.97;;;12.70;99.90;;;;;;4946668;29;20478;-72
2022/12/23 13:22:37;;;;;;;11.80;5.30;;;12.80;99.90;;;;;;4946567;28;20473;-72
2022/12/23 13:25:11;;;;;;;13.13;5.73;;;12.80;99.90;;;;;;4946412;29;20473;-72
2022/12/23 13:27:45;;;;;;;6.33;4.83;;;12.80;99.90;;;;;;4945871;28;20457;-72
2022/12/23 13:30:16;;;;;;;6.27;4.80;;;12.80;99.90;;;;;;4946629;29;20888;-73
2022/12/23 13:33:05;;;;;;;8.37;7.20;;;12.80;99.90;;;;;;4946335;29;20962;-73
2022/12/23 13:35:46;;;;;;;4.87;3.73;;;12.80;99.90;;;;;;4946220;29;20467;-72
2022/12/23 13:38:30;;;;;;;3.30;2.13;;;12.80;99.90;;;;;;4962110;28;20466;-73
2022/12/23 13:41:05;;;;;;;5.43;2.70;;;12.70;99.90;;;;;;4952003;28;21068;-72
2022/12/23 13:43:42;;;;;;;8.40;3.00;;;12.70;99.90;;;;;;4979347;28;20451;-72
2022/12/23 13:46:18;;;;;;;3.33;2.77;;;12.70;99.90;;;;;;4984360;28;20451;-72
2022/12/23 13:48:52;;;;;;;4.13;2.70;;;12.70;99.90;;;;;;4985420;28;20462;-72
2022/12/23 13:51:26;;;;;;;4.57;3.07;;;12.60;99.90;;;;;;4984573;28;20489;-72
2022/12/23 13:54:01;;;;;;;4.60;3.00;;;12.70;99.90;;;;;;4984866;28;20451;-72
2022/12/23 13:56:33;;;;;;;4.03;3.63;;;12.70;99.90;;;;;;4984117;28;20439;-72
2022/12/23 13:59:01;;;;;;;6.17;3.60;;;12.70;99.90;;;;;;4985224;28;20466;-72
2022/12/23 14:01:36;;;;;;;5.30;3.70;;;12.70;99.90;;;;;;4985464;28;20499;-72
2022/12/23 14:04:37;;;;;;;7.50;3.27;;;12.70;99.90;;;;;;4985563;28;20447;-72
2022/12/23 14:07:16;;;;;;;5.20;3.63;;;12.70;99.90;;;;;;4978721;28;21385;-72
2022/12/23 14:09:45;;;;;;;3.60;2.90;;;12.70;99.90;;;;;;4974017;28;20471;-72
2022/12/23 14:12:20;;;;;;;5.40;3.73;;;12.70;99.90;;;;;;4966268;28;20491;-71
2022/12/23 14:15:05;;;;;;;6.40;4.70;;;12.70;99.90;;;;;;4974437;28;20454;-72
2022/12/23 14:17:41;;;;;;;6.20;3.47;;;12.70;99.90;;;;;;4974053;28;20447;-63
2022/12/23 14:20:21;;;;;;;6.10;5.27;;;12.70;99.90;;;;;;4947188;29;20464;-63
2022/12/23 14:23:00;;;;;;;7.87;4.80;;;12.80;99.90;;;;;;4965991;28;20479;-64
2022/12/23 14:26:05;;;;;;;4.80;3.00;;;12.80;99.90;;;;;;4985265;28;20451;-64
2022/12/23 14:28:47;;;;;;;4.93;3.67;;;12.70;99.90;;;;;;4969298;28;20463;-63
2022/12/23 14:31:39;;;;;;;5.77;4.00;;;12.70;99.90;;;;;;4979082;28;20467;-72
2022/12/23 14:34:24;;;;;;;8.10;4.90;;;12.70;99.90;;;;;;4976150;28;20460;-71
2022/12/23 14:37:16;;;;;;;4.17;3.50;;;12.70;99.90;;;;;;4976445;28;21160;-73
2022/12/23 14:39:43;;;;;;;6.30;3.93;;;12.80;99.90;;;;;;4951356;28;20568;-71
2022/12/23 14:42:11;;;;;;;4.50;3.80;;;12.70;99.90;;;;;;4959736;28;20496;-72
2022/12/23 14:44:48;;;;;;;9.33;3.97;;;12.70;99.90;;;;;;4969285;28;20452;-72
2022/12/23 14:47:35;;;;;;;6.83;3.80;;;12.70;99.90;;;;;;4968655;28;20444;-71
2022/12/23 14:50:38;;;;;;;8.53;4.07;;;12.70;99.90;;;;;;4969484;28;20460;-71
2022/12/23 14:53:20;;;;;;;5.87;3.33;;;12.70;99.90;;;;;;4969580;28;20470;-72
2022/12/23 14:55:50;;;;;;;6.00;3.80;;;12.70;99.90;;;;;;4969410;28;20948;-72
2022/12/23 14:58:58;;;;;;;4.47;3.33;;;12.70;99.90;;;;;;4969023;28;20460;-72
2022/12/23 15:01:31;;;;;;;4.13;3.50;;;12.70;99.90;;;;;;4968596;28;20496;-71
2022/12/23 15:04:07;;;;;;;4.57;3.60;;;12.70;99.90;;;;;;4969282;28;20460;-72
2022/12/23 15:06:38;;;;;;;5.93;3.10;;;12.70;99.90;;;;;;4970982;28;20448;-71
2022/12/23 15:09:07;;;;;;;5.27;3.57;;;12.70;99.90;;;;;;4974124;28;20457;-72
2022/12/23 15:11:35;;;;;;;4.93;2.80;;;12.70;99.90;;;;;;4949621;28;20532;-72
2022/12/23 15:14:07;;;;;;;4.07;3.47;;;12.60;99.90;;;;;;4949951;29;20480;-71
2022/12/23 15:16:37;;;;;;;3.70;2.70;;;12.70;99.90;;;;;;4948620;29;20460;-72
2022/12/23 15:19:18;;;;;;;2.60;2.40;;;12.70;99.90;;;;;;4949496;29;20465;-72
2022/12/23 15:21:45;;;;;;;3.57;2.80;;;12.60;99.90;;;;;;4956136;28;20499;-72
2022/12/23 15:24:17;;;;;;;3.83;2.63;;;12.70;99.90;;;;;;4956918;28;20450;-72
2022/12/23 15:26:49;;;;;;;5.53;3.80;;;12.70;99.90;;;;;;4967958;28;20452;-72
2022/12/23 15:29:17;;;;;;;3.40;2.80;;;12.70;99.90;;;;;;4968448;28;20464;-72
2022/12/23 15:31:48;;;;;;;3.33;2.87;;;12.60;99.90;;;;;;4968360;28;20981;-72
2022/12/23 15:34:23;;;;;;;6.83;3.67;;;12.70;99.90;;;;;;4968459;28;20460;-72
2022/12/23 15:36:53;;;;;;;3.30;2.50;;;12.60;99.90;;;;;;4967270;28;20454;-72
2022/12/23 15:39:31;;;;;;;4.60;2.40;;;12.60;99.90;;;;;;4966726;28;20552;-72
2022/12/23 15:41:57;;;;;;;4.37;2.80;;;12.70;99.90;;;;;;4968369;28;20528;-72
2022/12/23 15:44:33;;;;;;;3.50;2.60;;;12.60;99.90;;;;;;4966929;28;20442;-71
2022/12/23 15:47:00;;;;;;;3.93;2.70;;;12.70;99.90;;;;;;4979424;28;20215;-71
2022/12/23 15:49:28;;;;;;;4.40;2.60;;;12.70;99.90;;;;;;4985143;28;20460;-71
2022/12/23 15:51:57;;;;;;;4.40;2.63;;;12.70;99.90;;;;;;4978401;28;20469;-73
2022/12/23 15:54:29;;;;;;;3.80;2.30;;;12.70;99.90;;;;;;4977054;28;20938;-71
2022/12/23 15:56:58;;;;;;;4.43;2.80;;;12.80;99.90;;;;;;4969168;28;20457;-71
2022/12/23 15:59:29;;;;;;;3.30;2.20;;;12.80;99.90;;;;;;4973888;28;21046;-72
2022/12/23 16:01:56;;;;;;;6.40;2.80;;;12.80;99.90;;;;;;4957437;28;20492;-71
2022/12/23 16:04:26;;;;;;;2.67;1.83;;;12.80;99.90;;;;;;4968345;28;20468;-72
2022/12/23 16:06:55;;;;;;;3.13;2.20;;;12.80;99.90;;;;;;4967664;28;20452;-71
2022/12/23 16:09:34;;;;;;;2.70;2.20;;;12.80;99.90;;;;;;4971608;28;20457;-72
2022/12/23 16:12:04;;;;;;;4.33;3.00;;;12.90;99.90;;;;;;4966932;28;20482;-72
2022/12/23 16:14:39;;;;;;;4.20;2.30;;;12.90;99.90;;;;;;4969986;28;20456;-72
2022/12/23 16:17:22;;;;;;;4.03;3.20;;;12.90;99.90;;;;;;4967326;28;20546;-72
2022/12/23 16:19:50;;;;;;;5.87;3.50;;;12.90;99.90;;;;;;4967235;28;20476;-71
2022/12/23 16:22:27;;;;;;;3.97;2.73;;;12.90;99.90;;;;;;4981761;28;20499;-72
2022/12/23 16:25:01;;;;;;;2.90;2.63;;;12.90;99.90;;;;;;4985506;28;20474;-72
2022/12/23 16:27:35;;;;;;;3.40;2.60;;;12.90;99.90;;;;;;4969195;28;20452;-72
2022/12/23 16:30:08;;;;;;;2.40;2.20;;;12.90;99.90;;;;;;4967736;28;20438;-72
2022/12/23 16:32:44;;;;;;;3.30;1.70;;;12.90;99.90;;;;;;4967361;28;21020;-72
2022/12/23 16:35:12;;;;;;;3.03;2.50;;;12.90;99.90;;;;;;4967406;28;20445;-72
2022/12/23 16:37:40;;;;;;;2.30;2.10;;;12.90;99.90;;;;;;4966676;28;20472;-71
2022/12/23 16:40:13;;;;;;;2.60;2.40;;;12.90;99.90;;;;;;4970163;28;20475;-72
2022/12/23 16:42:40;;;;;;;2.90;2.50;;;12.90;99.90;;;;;;4970651;28;21059;-79
2022/12/23 16:45:11;;;;;;;3.17;2.03;;;12.90;99.90;;;;;;4969666;28;20456;-75
2022/12/23 16:47:38;;;;;;;3.10;1.83;;;12.90;99.90;;;;;;4967718;28;20782;-76
2022/12/23 16:50:08;;;;;;;3.20;2.60;;;12.90;99.90;;;;;;4978173;28;20459;-79
2022/12/23 16:52:35;;;;;;;2.80;2.33;;;12.90;99.90;;;;;;4975154;28;21018;-72
2022/12/23 16:55:11;;;;;;;3.50;2.53;;;12.90;99.90;;;;;;4967036;28;20453;-73
2022/12/23 16:57:38;;;;;;;2.50;2.30;;;12.90;99.90;;;;;;4966533;28;20448;-73
2022/12/23 17:00:06;;;;;;;3.10;2.80;;;12.90;99.90;;;;;;4967240;28;20471;-73
2022/12/23 17:02:34;;;;;;;5.73;3.27;;;12.90;99.90;;;;;;4966607;28;20511;-73
2022/12/23 17:05:01;;;;;;;4.83;2.90;;;12.90;99.90;;;;;;4966744;28;20913;-73
2022/12/23 17:07:28;;;;;;;7.63;3.50;;;12.90;99.90;;;;;;4966498;28;20460;-73
2022/12/23 17:09:54;;;;;;;4.20;3.07;;;12.90;99.90;;;;;;4966768;28;20463;-73
2022/12/23 17:12:23;;;;;;;3.43;2.50;;;12.90;99.90;;;;;;4985771;28;20488;-73
2022/12/23 17:14:49;;;;;;;4.73;2.73;;;12.90;99.90;;;;;;4986232;28;20509;-73
2022/12/23 17:17:17;;;;;;;4.27;2.60;;;12.90;99.90;;;;;;4985366;28;20986;-73
2022/12/23 17:19:43;;;;;;;8.37;2.73;;;12.90;99.90;;;;;;4986404;28;20470;-73
2022/12/23 17:22:12;;;;;;;4.40;3.30;;;12.90;99.90;;;;;;4985957;28;20503;-73
2022/12/23 17:24:39;;;;;;;4.40;2.33;;;13.00;99.90;;;;;;4985721;28;20468;-73
2022/12/23 17:27:13;;;;;;;4.30;2.73;;;13.00;99.90;;;;;;4967623;28;20547;-73
2022/12/23 17:29:41;;;;;;;2.90;2.27;;;13.00;99.90;;;;;;4966774;28;20477;-73
2022/12/23 17:32:11;;;;;;;4.40;2.63;;;13.00;99.90;;;;;;4966499;28;20476;-73
2022/12/23 17:34:38;;;;;;;3.40;1.93;;;13.00;99.90;;;;;;4966575;28;20455;-72
2022/12/23 17:37:13;;;;;;;3.60;2.13;;;13.00;99.90;;;;;;4965998;28;20844;-72
2022/12/23 17:39:40;;;;;;;3.40;2.50;;;12.90;99.90;;;;;;4954135;28;20465;-72
2022/12/23 17:42:09;;;;;;;7.80;2.97;;;12.90;99.90;;;;;;4947174;28;20500;-72
2022/12/23 17:44:36;;;;;;;3.20;2.77;;;12.90;99.90;;;;;;4947206;29;20463;-72
2022/12/23 17:47:12;;;;;;;6.30;3.17;;;12.90;99.90;;;;;;4946891;29;21125;-72
2022/12/23 17:49:39;;;;;;;4.20;3.40;;;12.80;99.90;;;;;;4947111;28;20863;-73
2022/12/23 17:52:06;;;;;;;4.27;3.20;;;12.80;99.90;;;;;;4947112;28;20560;-73
2022/12/23 17:54:33;;;;;;;4.33;2.60;;;12.70;99.90;;;;;;4947377;29;20468;-73
2022/12/23 17:57:00;;;;;;;2.90;2.47;;;12.70;99.90;;;;;;4946476;29;20986;-73
2022/12/23 17:59:26;;;;;;;4.50;3.20;;;12.70;99.90;;;;;;4947144;29;20457;-73
2022/12/23 18:01:53;;;;;;;4.63;3.53;;;12.70;99.90;;;;;;4948816;28;21409;-72
2022/12/23 18:04:21;;;;;;;5.17;3.43;;;12.70;99.90;;;;;;4952661;29;20976;-72
2022/12/23 18:06:48;;;;;;;3.57;2.83;;;12.70;99.90;;;;;;4951556;29;20468;-72